sensor_id;sensor_type;location;lat;lon;timestamp;temperature;humidity
843;DHT22;407;48.884;9.126;2023-11-18T00:01:43;6.40;25.40
843;DHT22;407;48.884;9.126;2023-11-18T00:04:10;6.30;99.90
843;DHT22;407;48.884;9.126;2023-11-18T00:06:44;6.30;99.90
843;DHT22;407;48.884;9.126;2023-11-18T00:09:13;6.30;99.90
843;DHT22;407;48.884;9.126;2023-11-18T00:11:43;6.40;99.90
843;DHT22;407;48.884;9.126;2023-11-18T00:14:09;6.30;99.90
843;DHT22;407;48.884;9.126;2023-11-18T00:16:36;6.30;99.90
843;DHT22;407;48.884;9.126;2023-11-18T00:19:02;6.30;99.90
843;DHT22;407;48.884;9.126;2023-11-18T00:21:30;6.20;99.90
843;DHT22;407;48.884;9.126;2023-11-18T00:23:56;6.10;99.90
843;DHT22;407;48.884;9.126;2023-11-18T00:26:21;6.00;99.90
843;DHT22;407;48.884;9.126;2023-11-18T00:28:47;6.00;99.90
843;DHT22;407;48.884;9.126;2023-11-18T00:31:14;5.90;99.90
843;DHT22;407;48.884;9.126;2023-11-18T00:33:39;6.00;99.90
843;DHT22;407;48.884;9.126;2023-11-18T00:36:06;6.00;79.80
843;DHT22;407;48.884;9.126;2023-11-18T00:38:32;6.00;99.90
843;DHT22;407;48.884;9.126;2023-11-18T00:40:57;6.00;99.90
843;DHT22;407;48.884;9.126;2023-11-18T00:43:23;6.00;99.90
843;DHT22;407;48.884;9.126;2023-11-18T00:45:48;6.00;99.90
843;DHT22;407;48.884;9.126;2023-11-18T00:48:14;6.00;99.90
843;DHT22;407;48.884;9.126;2023-11-18T00:50:40;6.00;97.70
843;DHT22;407;48.884;9.126;2023-11-18T00:53:06;6.00;98.00
843;DHT22;407;48.884;9.126;2023-11-18T00:55:31;6.10;77.20
843;DHT22;407;48.884;9.126;2023-11-18T00:57:57;6.20;51.30
843;DHT22;407;48.884;9.126;2023-11-18T01:00:24;6.20;45.00
843;DHT22;407;48.884;9.126;2023-11-18T01:02:53;6.30;52.00
843;DHT22;407;48.884;9.126;2023-11-18T01:05:20;6.40;88.20
843;DHT22;407;48.884;9.126;2023-11-18T01:07:45;6.50;59.80
843;DHT22;407;48.884;9.126;2023-11-18T01:10:12;6.50;45.20
843;DHT22;407;48.884;9.126;2023-11-18T01:12:39;6.60;49.90
843;DHT22;407;48.884;9.126;2023-11-18T01:15:05;6.70;62.00
843;DHT22;407;48.884;9.126;2023-11-18T01:17:32;6.70;45.20
843;DHT22;407;48.884;9.126;2023-11-18T01:19:58;6.70;32.50
843;DHT22;407;48.884;9.126;2023-11-18T01:22:24;6.80;45.50
843;DHT22;407;48.884;9.126;2023-11-18T01:24:50;6.80;51.50
843;DHT22;407;48.884;9.126;2023-11-18T01:27:18;6.90;52.50
843;DHT22;407;48.884;9.126;2023-11-18T01:29:45;7.10;35.00
843;DHT22;407;48.884;9.126;2023-11-18T01:32:12;7.10;23.00
843;DHT22;407;48.884;9.126;2023-11-18T01:34:40;7.30;19.30
843;DHT22;407;48.884;9.126;2023-11-18T01:37:06;7.40;3.80
843;DHT22;407;48.884;9.126;2023-11-18T01:39:33;7.30;1.00
843;DHT22;407;48.884;9.126;2023-11-18T01:41:58;7.20;1.00
843;DHT22;407;48.884;9.126;2023-11-18T01:44:25;7.10;1.00
843;DHT22;407;48.884;9.126;2023-11-18T01:46:50;7.20;1.00
843;DHT22;407;48.884;9.126;2023-11-18T01:49:16;7.30;1.00
843;DHT22;407;48.884;9.126;2023-11-18T01:51:45;7.20;1.00
843;DHT22;407;48.884;9.126;2023-11-18T01:54:12;7.20;1.00
843;DHT22;407;48.884;9.126;2023-11-18T01:56:41;7.10;1.00
843;DHT22;407;48.884;9.126;2023-11-18T01:59:09;7.10;1.00
843;DHT22;407;48.884;9.126;2023-11-18T02:01:35;7.10;1.00
843;DHT22;407;48.884;9.126;2023-11-18T02:04:02;7.10;1.00
843;DHT22;407;48.884;9.126;2023-11-18T02:06:31;7.10;1.00
843;DHT22;407;48.884;9.126;2023-11-18T02:08:56;7.10;1.00
843;DHT22;407;48.884;9.126;2023-11-18T02:11:37;7.00;1.00
843;DHT22;407;48.884;9.126;2023-11-18T02:14:09;7.00;1.00
843;DHT22;407;48.884;9.126;2023-11-18T02:16:38;7.10;1.00
843;DHT22;407;48.884;9.126;2023-11-18T02:19:13;7.10;1.00
843;DHT22;407;48.884;9.126;2023-11-18T02:21:41;7.10;1.00
843;DHT22;407;48.884;9.126;2023-11-18T02:24:09;7.10;1.00
843;DHT22;407;48.884;9.126;2023-11-18T02:26:35;7.10;1.00
843;DHT22;407;48.884;9.126;2023-11-18T02:29:00;7.20;1.00
843;DHT22;407;48.884;9.126;2023-11-18T02:31:33;7.20;1.00
843;DHT22;407;48.884;9.126;2023-11-18T02:34:05;7.20;1.00
843;DHT22;407;48.884;9.126;2023-11-18T02:36:38;7.20;1.00
843;DHT22;407;48.884;9.126;2023-11-18T02:39:08;7.20;1.00
843;DHT22;407;48.884;9.126;2023-11-18T02:41:38;7.10;1.00
843;DHT22;407;48.884;9.126;2023-11-18T02:44:06;7.10;1.00
843;DHT22;407;48.884;9.126;2023-11-18T02:46:36;7.00;1.00
843;DHT22;407;48.884;9.126;2023-11-18T02:49:03;6.80;1.00
843;DHT22;407;48.884;9.126;2023-11-18T02:51:29;6.70;1.00
843;DHT22;407;48.884;9.126;2023-11-18T02:53:59;6.60;1.00
843;DHT22;407;48.884;9.126;2023-11-18T02:56:24;6.40;1.00
843;DHT22;407;48.884;9.126;2023-11-18T02:58:50;6.30;1.00
843;DHT22;407;48.884;9.126;2023-11-18T03:01:15;6.40;7.30
843;DHT22;407;48.884;9.126;2023-11-18T03:03:41;6.50;30.90
843;DHT22;407;48.884;9.126;2023-11-18T03:06:08;6.60;98.70
843;DHT22;407;48.884;9.126;2023-11-18T03:08:33;6.70;99.90
843;DHT22;407;48.884;9.126;2023-11-18T03:10:59;6.80;99.90
843;DHT22;407;48.884;9.126;2023-11-18T03:13:25;6.80;37.40
843;DHT22;407;48.884;9.126;2023-11-18T03:15:50;6.70;5.30
843;DHT22;407;48.884;9.126;2023-11-18T03:18:17;6.60;1.00
843;DHT22;407;48.884;9.126;2023-11-18T03:20:42;6.50;41.40
843;DHT22;407;48.884;9.126;2023-11-18T03:23:08;6.50;42.60
843;DHT22;407;48.884;9.126;2023-11-18T03:25:35;6.40;46.40
843;DHT22;407;48.884;9.126;2023-11-18T03:28:00;6.30;40.60
843;DHT22;407;48.884;9.126;2023-11-18T03:30:26;6.30;99.90
843;DHT22;407;48.884;9.126;2023-11-18T03:32:53;6.30;92.00
843;DHT22;407;48.884;9.126;2023-11-18T03:35:18;6.30;99.90
843;DHT22;407;48.884;9.126;2023-11-18T03:37:44;6.30;99.90
843;DHT22;407;48.884;9.126;2023-11-18T03:40:12;6.40;99.90
843;DHT22;407;48.884;9.126;2023-11-18T03:42:38;6.50;25.20
843;DHT22;407;48.884;9.126;2023-11-18T03:45:05;6.50;24.00
843;DHT22;407;48.884;9.126;2023-11-18T03:47:31;6.50;56.80
843;DHT22;407;48.884;9.126;2023-11-18T03:49:57;6.50;42.20
843;DHT22;407;48.884;9.126;2023-11-18T03:52:24;6.60;22.90
843;DHT22;407;48.884;9.126;2023-11-18T03:54:49;6.60;41.40
843;DHT22;407;48.884;9.126;2023-11-18T03:57:15;6.60;15.60
843;DHT22;407;48.884;9.126;2023-11-18T03:59:40;6.60;14.90
843;DHT22;407;48.884;9.126;2023-11-18T04:02:06;6.60;21.00
843;DHT22;407;48.884;9.126;2023-11-18T04:04:32;6.60;30.80
843;DHT22;407;48.884;9.126;2023-11-18T04:06:57;6.70;16.80
843;DHT22;407;48.884;9.126;2023-11-18T04:09:26;6.70;14.30
843;DHT22;407;48.884;9.126;2023-11-18T04:11:52;6.70;1.00
843;DHT22;407;48.884;9.126;2023-11-18T04:14:17;6.60;1.00
843;DHT22;407;48.884;9.126;2023-11-18T04:16:45;6.70;3.00
843;DHT22;407;48.884;9.126;2023-11-18T04:19:11;6.80;1.00
843;DHT22;407;48.884;9.126;2023-11-18T04:21:37;6.70;1.00
843;DHT22;407;48.884;9.126;2023-11-18T04:24:04;6.60;1.00
843;DHT22;407;48.884;9.126;2023-11-18T04:26:31;6.60;1.00
843;DHT22;407;48.884;9.126;2023-11-18T04:28:57;6.50;1.00
843;DHT22;407;48.884;9.126;2023-11-18T04:31:23;6.30;1.00
843;DHT22;407;48.884;9.126;2023-11-18T04:33:48;6.30;1.00
843;DHT22;407;48.884;9.126;2023-11-18T04:36:14;6.10;1.00
843;DHT22;407;48.884;9.126;2023-11-18T04:38:41;6.10;1.00
843;DHT22;407;48.884;9.126;2023-11-18T04:41:07;6.20;1.00
843;DHT22;407;48.884;9.126;2023-11-18T04:43:32;6.20;1.00
843;DHT22;407;48.884;9.126;2023-11-18T04:45:59;6.10;1.00
843;DHT22;407;48.884;9.126;2023-11-18T04:48:24;6.10;1.00
843;DHT22;407;48.884;9.126;2023-11-18T04:50:50;6.00;1.00
843;DHT22;407;48.884;9.126;2023-11-18T04:53:15;5.90;1.00
843;DHT22;407;48.884;9.126;2023-11-18T04:55:41;5.90;1.00
843;DHT22;407;48.884;9.126;2023-11-18T04:58:06;5.90;1.00
843;DHT22;407;48.884;9.126;2023-11-18T05:00:34;5.90;1.00
843;DHT22;407;48.884;9.126;2023-11-18T05:08:20;5.80;1.00
843;DHT22;407;48.884;9.126;2023-11-18T05:10:49;5.70;1.00
843;DHT22;407;48.884;9.126;2023-11-18T05:13:16;5.60;1.00
843;DHT22;407;48.884;9.126;2023-11-18T05:15:45;5.60;1.00
843;DHT22;407;48.884;9.126;2023-11-18T05:18:14;5.60;1.00
843;DHT22;407;48.884;9.126;2023-11-18T05:20:41;5.50;1.00
843;DHT22;407;48.884;9.126;2023-11-18T05:23:07;5.50;1.00
843;DHT22;407;48.884;9.126;2023-11-18T05:25:36;5.50;1.00
843;DHT22;407;48.884;9.126;2023-11-18T05:28:01;5.50;1.00
843;DHT22;407;48.884;9.126;2023-11-18T05:30:27;5.50;1.00
843;DHT22;407;48.884;9.126;2023-11-18T05:32:52;5.60;1.00
843;DHT22;407;48.884;9.126;2023-11-18T05:35:18;5.50;1.00
843;DHT22;407;48.884;9.126;2023-11-18T05:37:44;5.50;1.00
843;DHT22;407;48.884;9.126;2023-11-18T05:40:10;5.50;1.00
843;DHT22;407;48.884;9.126;2023-11-18T05:42:40;5.50;1.00
843;DHT22;407;48.884;9.126;2023-11-18T05:45:07;5.30;1.00
843;DHT22;407;48.884;9.126;2023-11-18T05:47:34;5.30;1.00
843;DHT22;407;48.884;9.126;2023-11-18T05:50:00;5.30;1.00
843;DHT22;407;48.884;9.126;2023-11-18T05:52:25;5.40;1.00
843;DHT22;407;48.884;9.126;2023-11-18T05:54:51;5.50;1.00
843;DHT22;407;48.884;9.126;2023-11-18T05:57:17;5.50;1.00
843;DHT22;407;48.884;9.126;2023-11-18T05:59:43;5.50;1.00
843;DHT22;407;48.884;9.126;2023-11-18T06:02:09;5.50;25.90
843;DHT22;407;48.884;9.126;2023-11-18T06:04:38;5.50;99.90
843;DHT22;407;48.884;9.126;2023-11-18T06:07:04;5.50;82.70
843;DHT22;407;48.884;9.126;2023-11-18T06:09:30;5.50;49.30
843;DHT22;407;48.884;9.126;2023-11-18T06:11:55;5.40;2.00
843;DHT22;407;48.884;9.126;2023-11-18T06:14:21;5.20;1.00
843;DHT22;407;48.884;9.126;2023-11-18T06:16:50;5.10;52.20
843;DHT22;407;48.884;9.126;2023-11-18T06:19:15;5.10;99.90
843;DHT22;407;48.884;9.126;2023-11-18T06:21:41;5.10;99.90
843;DHT22;407;48.884;9.126;2023-11-18T06:24:07;5.20;99.90
843;DHT22;407;48.884;9.126;2023-11-18T06:26:33;5.20;99.90
843;DHT22;407;48.884;9.126;2023-11-18T06:29:02;5.10;8.30
843;DHT22;407;48.884;9.126;2023-11-18T06:31:27;5.00;24.50
843;DHT22;407;48.884;9.126;2023-11-18T06:33:54;4.90;97.90
843;DHT22;407;48.884;9.126;2023-11-18T06:36:20;4.90;99.90
843;DHT22;407;48.884;9.126;2023-11-18T06:38:48;4.90;99.90
843;DHT22;407;48.884;9.126;2023-11-18T06:41:18;4.80;90.90
843;DHT22;407;48.884;9.126;2023-11-18T06:43:45;4.80;68.10
843;DHT22;407;48.884;9.126;2023-11-18T06:46:21;4.80;42.60
843;DHT22;407;48.884;9.126;2023-11-18T06:48:48;4.90;26.80
843;DHT22;407;48.884;9.126;2023-11-18T06:51:17;4.80;12.50
843;DHT22;407;48.884;9.126;2023-11-18T06:53:43;4.90;90.10
843;DHT22;407;48.884;9.126;2023-11-18T06:56:09;4.90;51.60
843;DHT22;407;48.884;9.126;2023-11-18T06:58:38;4.90;99.90
843;DHT22;407;48.884;9.126;2023-11-18T07:01:04;4.90;99.90
843;DHT22;407;48.884;9.126;2023-11-18T07:03:31;5.00;99.90
843;DHT22;407;48.884;9.126;2023-11-18T07:05:57;5.10;99.90
843;DHT22;407;48.884;9.126;2023-11-18T07:08:22;5.30;99.90
843;DHT22;407;48.884;9.126;2023-11-18T07:10:48;5.40;99.90
843;DHT22;407;48.884;9.126;2023-11-18T07:13:14;5.60;99.90
843;DHT22;407;48.884;9.126;2023-11-18T07:15:39;5.80;99.90
843;DHT22;407;48.884;9.126;2023-11-18T07:18:06;5.90;99.90
843;DHT22;407;48.884;9.126;2023-11-18T07:20:34;6.00;99.90
843;DHT22;407;48.884;9.126;2023-11-18T07:23:00;6.20;99.90
843;DHT22;407;48.884;9.126;2023-11-18T07:25:25;6.20;92.20
843;DHT22;407;48.884;9.126;2023-11-18T07:27:51;6.40;62.30
843;DHT22;407;48.884;9.126;2023-11-18T07:30:17;6.60;1.00
843;DHT22;407;48.884;9.126;2023-11-18T07:32:43;6.80;1.00
843;DHT22;407;48.884;9.126;2023-11-18T07:35:09;7.00;1.00
843;DHT22;407;48.884;9.126;2023-11-18T07:37:36;7.10;1.00
843;DHT22;407;48.884;9.126;2023-11-18T07:40:06;7.20;1.00
843;DHT22;407;48.884;9.126;2023-11-18T07:42:33;7.50;1.00
843;DHT22;407;48.884;9.126;2023-11-18T07:45:00;7.70;1.00
843;DHT22;407;48.884;9.126;2023-11-18T07:47:29;7.90;1.00
843;DHT22;407;48.884;9.126;2023-11-18T07:49:59;8.30;1.00
843;DHT22;407;48.884;9.126;2023-11-18T07:52:27;8.40;1.00
843;DHT22;407;48.884;9.126;2023-11-18T07:54:54;8.60;1.00
843;DHT22;407;48.884;9.126;2023-11-18T07:57:19;8.90;1.00
843;DHT22;407;48.884;9.126;2023-11-18T07:59:45;9.10;1.00
843;DHT22;407;48.884;9.126;2023-11-18T08:02:10;9.10;1.00
843;DHT22;407;48.884;9.126;2023-11-18T08:04:36;9.30;1.00
843;DHT22;407;48.884;9.126;2023-11-18T08:07:02;9.30;1.00
843;DHT22;407;48.884;9.126;2023-11-18T08:09:30;9.30;1.00
843;DHT22;407;48.884;9.126;2023-11-18T08:11:57;9.60;1.00
843;DHT22;407;48.884;9.126;2023-11-18T08:14:22;9.60;1.00
843;DHT22;407;48.884;9.126;2023-11-18T08:16:48;9.60;1.00
843;DHT22;407;48.884;9.126;2023-11-18T08:19:15;9.50;1.00
843;DHT22;407;48.884;9.126;2023-11-18T08:21:40;9.40;1.00
843;DHT22;407;48.884;9.126;2023-11-18T08:24:07;9.50;1.00
843;DHT22;407;48.884;9.126;2023-11-18T08:26:36;9.40;1.00
843;DHT22;407;48.884;9.126;2023-11-18T08:29:03;9.30;1.00
843;DHT22;407;48.884;9.126;2023-11-18T08:31:28;9.20;1.00
843;DHT22;407;48.884;9.126;2023-11-18T08:33:54;9.10;1.00
843;DHT22;407;48.884;9.126;2023-11-18T08:36:20;8.90;1.00
843;DHT22;407;48.884;9.126;2023-11-18T08:38:48;8.80;1.00
843;DHT22;407;48.884;9.126;2023-11-18T08:41:13;8.80;1.00
843;DHT22;407;48.884;9.126;2023-11-18T08:43:39;8.60;1.00
843;DHT22;407;48.884;9.126;2023-11-18T08:46:06;8.50;1.00
843;DHT22;407;48.884;9.126;2023-11-18T08:48:32;8.40;1.00
843;DHT22;407;48.884;9.126;2023-11-18T08:50:59;8.60;1.00
843;DHT22;407;48.884;9.126;2023-11-18T08:53:27;8.80;1.00
843;DHT22;407;48.884;9.126;2023-11-18T08:55:53;8.90;1.00
843;DHT22;407;48.884;9.126;2023-11-18T08:58:21;9.20;1.00
843;DHT22;407;48.884;9.126;2023-11-18T09:00:52;9.40;1.00
843;DHT22;407;48.884;9.126;2023-11-18T09:03:28;9.50;1.00
843;DHT22;407;48.884;9.126;2023-11-18T09:05:56;9.40;1.00
843;DHT22;407;48.884;9.126;2023-11-18T09:08:23;9.60;1.00
843;DHT22;407;48.884;9.126;2023-11-18T09:10:49;9.80;1.00
843;DHT22;407;48.884;9.126;2023-11-18T09:13:21;9.80;1.00
843;DHT22;407;48.884;9.126;2023-11-18T09:15:48;10.00;1.00
843;DHT22;407;48.884;9.126;2023-11-18T09:18:14;10.30;1.00
843;DHT22;407;48.884;9.126;2023-11-18T09:20:39;10.70;1.00
843;DHT22;407;48.884;9.126;2023-11-18T09:23:05;10.90;1.00
843;DHT22;407;48.884;9.126;2023-11-18T09:25:32;11.10;1.00
843;DHT22;407;48.884;9.126;2023-11-18T09:27:58;11.00;1.00
843;DHT22;407;48.884;9.126;2023-11-18T09:30:23;11.10;1.00
843;DHT22;407;48.884;9.126;2023-11-18T09:32:50;11.20;1.00
843;DHT22;407;48.884;9.126;2023-11-18T09:35:17;11.20;1.00
843;DHT22;407;48.884;9.126;2023-11-18T09:37:45;11.30;1.00
843;DHT22;407;48.884;9.126;2023-11-18T09:40:13;11.30;1.00
843;DHT22;407;48.884;9.126;2023-11-18T09:42:42;11.30;1.00
843;DHT22;407;48.884;9.126;2023-11-18T09:45:10;11.10;1.00
843;DHT22;407;48.884;9.126;2023-11-18T09:47:45;10.90;1.00
843;DHT22;407;48.884;9.126;2023-11-18T09:50:17;10.90;1.00
843;DHT22;407;48.884;9.126;2023-11-18T09:52:49;10.70;1.00
843;DHT22;407;48.884;9.126;2023-11-18T09:55:26;10.30;1.00
843;DHT22;407;48.884;9.126;2023-11-18T09:58:03;10.30;1.00
843;DHT22;407;48.884;9.126;2023-11-18T10:00:31;10.20;1.00
843;DHT22;407;48.884;9.126;2023-11-18T10:03:00;10.10;1.00
843;DHT22;407;48.884;9.126;2023-11-18T10:05:33;10.20;1.00
843;DHT22;407;48.884;9.126;2023-11-18T10:08:02;10.30;1.00
843;DHT22;407;48.884;9.126;2023-11-18T10:10:31;10.10;1.00
843;DHT22;407;48.884;9.126;2023-11-18T10:13:02;10.10;1.00
843;DHT22;407;48.884;9.126;2023-11-18T10:15:30;10.10;1.00
843;DHT22;407;48.884;9.126;2023-11-18T10:17:56;10.30;1.00
843;DHT22;407;48.884;9.126;2023-11-18T10:20:50;10.00;1.00
843;DHT22;407;48.884;9.126;2023-11-18T10:23:21;9.90;1.00
843;DHT22;407;48.884;9.126;2023-11-18T10:25:47;10.00;1.00
843;DHT22;407;48.884;9.126;2023-11-18T10:30:58;10.00;1.00
843;DHT22;407;48.884;9.126;2023-11-18T10:33:27;10.10;1.00
843;DHT22;407;48.884;9.126;2023-11-18T10:35:56;10.30;1.00
843;DHT22;407;48.884;9.126;2023-11-18T10:38:22;10.50;1.00
843;DHT22;407;48.884;9.126;2023-11-18T10:40:58;10.70;1.00
843;DHT22;407;48.884;9.126;2023-11-18T10:43:24;10.90;1.00
843;DHT22;407;48.884;9.126;2023-11-18T10:45:54;11.00;1.00
843;DHT22;407;48.884;9.126;2023-11-18T10:48:29;10.80;1.00
843;DHT22;407;48.884;9.126;2023-11-18T10:50:55;10.60;1.00
843;DHT22;407;48.884;9.126;2023-11-18T10:53:23;10.60;1.00
843;DHT22;407;48.884;9.126;2023-11-18T10:55:51;11.00;1.00
843;DHT22;407;48.884;9.126;2023-11-18T10:58:17;11.10;1.00
843;DHT22;407;48.884;9.126;2023-11-18T11:00:50;11.20;1.00
843;DHT22;407;48.884;9.126;2023-11-18T11:03:17;11.40;1.00
843;DHT22;407;48.884;9.126;2023-11-18T11:05:43;11.60;1.00
843;DHT22;407;48.884;9.126;2023-11-18T11:08:13;11.60;1.00
843;DHT22;407;48.884;9.126;2023-11-18T11:10:43;11.70;1.00
843;DHT22;407;48.884;9.126;2023-11-18T11:13:09;11.60;1.00
843;DHT22;407;48.884;9.126;2023-11-18T11:15:42;11.60;1.00
843;DHT22;407;48.884;9.126;2023-11-18T11:18:20;11.60;1.00
843;DHT22;407;48.884;9.126;2023-11-18T11:20:57;11.60;1.00
843;DHT22;407;48.884;9.126;2023-11-18T11:23:50;11.50;1.00
843;DHT22;407;48.884;9.126;2023-11-18T11:32:26;11.40;1.00
843;DHT22;407;48.884;9.126;2023-11-18T11:34:55;11.40;1.00
843;DHT22;407;48.884;9.126;2023-11-18T11:37:24;11.30;1.00
843;DHT22;407;48.884;9.126;2023-11-18T11:39:53;11.30;1.00
843;DHT22;407;48.884;9.126;2023-11-18T11:42:20;11.10;1.00
843;DHT22;407;48.884;9.126;2023-11-18T11:44:47;11.10;1.00
843;DHT22;407;48.884;9.126;2023-11-18T11:47:13;11.10;1.00
843;DHT22;407;48.884;9.126;2023-11-18T11:50:19;11.10;1.00
843;DHT22;407;48.884;9.126;2023-11-18T11:52:53;11.10;1.00
843;DHT22;407;48.884;9.126;2023-11-18T11:55:38;11.00;1.00
843;DHT22;407;48.884;9.126;2023-11-18T11:58:28;11.20;1.00
843;DHT22;407;48.884;9.126;2023-11-18T12:01:40;11.40;1.00
843;DHT22;407;48.884;9.126;2023-11-18T12:03:49;11.60;1.00
843;DHT22;407;48.884;9.126;2023-11-18T12:06:19;11.80;1.00
843;DHT22;407;48.884;9.126;2023-11-18T12:08:57;11.50;1.00
843;DHT22;407;48.884;9.126;2023-11-18T12:11:23;11.30;1.00
843;DHT22;407;48.884;9.126;2023-11-18T12:14:03;11.30;1.00
843;DHT22;407;48.884;9.126;2023-11-18T12:17:03;11.20;1.00
843;DHT22;407;48.884;9.126;2023-11-18T12:19:36;11.10;1.00
843;DHT22;407;48.884;9.126;2023-11-18T12:22:11;11.10;1.00
843;DHT22;407;48.884;9.126;2023-11-18T12:35:24;11.00;1.00
843;DHT22;407;48.884;9.126;2023-11-18T12:40:53;11.00;1.00
843;DHT22;407;48.884;9.126;2023-11-18T12:43:47;11.00;1.00
843;DHT22;407;48.884;9.126;2023-11-18T12:46:44;10.90;1.00
843;DHT22;407;48.884;9.126;2023-11-18T12:49:16;10.80;1.00
843;DHT22;407;48.884;9.126;2023-11-18T12:51:44;10.70;1.00
843;DHT22;407;48.884;9.126;2023-11-18T12:54:11;10.70;1.00
843;DHT22;407;48.884;9.126;2023-11-18T12:56:41;10.70;1.00
843;DHT22;407;48.884;9.126;2023-11-18T12:59:16;10.60;1.00
843;DHT22;407;48.884;9.126;2023-11-18T13:01:52;10.70;1.00
843;DHT22;407;48.884;9.126;2023-11-18T13:04:25;10.70;1.00
843;DHT22;407;48.884;9.126;2023-11-18T13:06:53;10.80;1.00
843;DHT22;407;48.884;9.126;2023-11-18T13:09:19;10.60;1.00
843;DHT22;407;48.884;9.126;2023-11-18T13:11:58;10.50;1.00
843;DHT22;407;48.884;9.126;2023-11-18T13:14:25;10.30;1.00
843;DHT22;407;48.884;9.126;2023-11-18T13:16:53;10.10;1.00
843;DHT22;407;48.884;9.126;2023-11-18T13:19:26;10.20;1.00
843;DHT22;407;48.884;9.126;2023-11-18T13:21:55;10.10;1.00
843;DHT22;407;48.884;9.126;2023-11-18T13:24:21;10.20;1.00
843;DHT22;407;48.884;9.126;2023-11-18T13:26:46;10.20;1.00
843;DHT22;407;48.884;9.126;2023-11-18T13:29:14;10.10;1.00
843;DHT22;407;48.884;9.126;2023-11-18T13:31:39;10.10;1.00
843;DHT22;407;48.884;9.126;2023-11-18T13:34:06;10.10;1.00
843;DHT22;407;48.884;9.126;2023-11-18T13:36:32;10.10;1.00
843;DHT22;407;48.884;9.126;2023-11-18T13:38:58;9.90;1.00
843;DHT22;407;48.884;9.126;2023-11-18T13:41:30;9.80;1.00
843;DHT22;407;48.884;9.126;2023-11-18T13:43:57;9.70;1.00
843;DHT22;407;48.884;9.126;2023-11-18T13:46:24;9.50;1.00
843;DHT22;407;48.884;9.126;2023-11-18T13:48:49;9.60;1.00
843;DHT22;407;48.884;9.126;2023-11-18T13:51:16;9.70;1.00
843;DHT22;407;48.884;9.126;2023-11-18T13:53:43;9.80;1.00
843;DHT22;407;48.884;9.126;2023-11-18T13:56:10;9.80;1.00
843;DHT22;407;48.884;9.126;2023-11-18T13:58:36;9.70;1.00
843;DHT22;407;48.884;9.126;2023-11-18T14:01:10;9.70;1.00
843;DHT22;407;48.884;9.126;2023-11-18T14:03:38;9.70;1.00
843;DHT22;407;48.884;9.126;2023-11-18T14:06:08;9.60;1.00
843;DHT22;407;48.884;9.126;2023-11-18T14:08:38;9.50;1.00
843;DHT22;407;48.884;9.126;2023-11-18T14:11:04;9.50;1.00
843;DHT22;407;48.884;9.126;2023-11-18T14:13:31;9.30;1.00
843;DHT22;407;48.884;9.126;2023-11-18T14:15:58;9.40;1.00
843;DHT22;407;48.884;9.126;2023-11-18T14:18:24;9.50;1.00
843;DHT22;407;48.884;9.126;2023-11-18T14:20:50;9.50;1.00
843;DHT22;407;48.884;9.126;2023-11-18T14:23:16;9.50;1.00
843;DHT22;407;48.884;9.126;2023-11-18T14:25:41;9.50;1.00
843;DHT22;407;48.884;9.126;2023-11-18T14:28:07;9.40;1.00
843;DHT22;407;48.884;9.126;2023-11-18T14:30:36;9.50;1.00
843;DHT22;407;48.884;9.126;2023-11-18T14:33:01;9.50;1.00
843;DHT22;407;48.884;9.126;2023-11-18T14:35:27;9.40;1.00
843;DHT22;407;48.884;9.126;2023-11-18T14:37:52;9.40;1.00
843;DHT22;407;48.884;9.126;2023-11-18T14:40:18;9.30;1.00
843;DHT22;407;48.884;9.126;2023-11-18T14:42:46;9.40;1.00
843;DHT22;407;48.884;9.126;2023-11-18T14:45:14;9.40;1.00
843;DHT22;407;48.884;9.126;2023-11-18T14:47:44;9.40;1.00
843;DHT22;407;48.884;9.126;2023-11-18T14:50:11;9.40;1.00
843;DHT22;407;48.884;9.126;2023-11-18T14:52:47;9.40;1.00
843;DHT22;407;48.884;9.126;2023-11-18T14:55:14;9.40;1.00
843;DHT22;407;48.884;9.126;2023-11-18T14:57:43;9.20;1.00
843;DHT22;407;48.884;9.126;2023-11-18T15:00:10;9.20;1.00
843;DHT22;407;48.884;9.126;2023-11-18T15:02:51;9.30;1.00
843;DHT22;407;48.884;9.126;2023-11-18T15:05:17;9.30;1.00
843;DHT22;407;48.884;9.126;2023-11-18T15:10:16;9.20;1.00
843;DHT22;407;48.884;9.126;2023-11-18T15:12:48;9.00;1.00
843;DHT22;407;48.884;9.126;2023-11-18T15:15:14;9.00;1.00
843;DHT22;407;48.884;9.126;2023-11-18T15:17:47;9.00;1.00
843;DHT22;407;48.884;9.126;2023-11-18T15:20:17;8.90;1.00
843;DHT22;407;48.884;9.126;2023-11-18T15:22:47;8.90;1.00
843;DHT22;407;48.884;9.126;2023-11-18T15:25:12;8.90;1.00
843;DHT22;407;48.884;9.126;2023-11-18T15:27:42;8.80;1.00
843;DHT22;407;48.884;9.126;2023-11-18T15:30:10;8.80;1.00
843;DHT22;407;48.884;9.126;2023-11-18T15:32:40;8.80;1.00
843;DHT22;407;48.884;9.126;2023-11-18T15:35:06;8.90;1.00
843;DHT22;407;48.884;9.126;2023-11-18T15:37:39;9.00;1.00
843;DHT22;407;48.884;9.126;2023-11-18T15:40:07;8.90;1.00
843;DHT22;407;48.884;9.126;2023-11-18T15:42:43;9.00;1.00
843;DHT22;407;48.884;9.126;2023-11-18T15:45:15;9.00;1.00
843;DHT22;407;48.884;9.126;2023-11-18T15:47:42;9.00;1.00
843;DHT22;407;48.884;9.126;2023-11-18T15:50:09;8.90;1.00
843;DHT22;407;48.884;9.126;2023-11-18T15:52:41;8.90;1.00
843;DHT22;407;48.884;9.126;2023-11-18T15:55:07;8.90;1.00
843;DHT22;407;48.884;9.126;2023-11-18T15:57:38;9.10;1.00
843;DHT22;407;48.884;9.126;2023-11-18T16:00:08;9.10;1.00
843;DHT22;407;48.884;9.126;2023-11-18T16:02:40;9.00;1.00
843;DHT22;407;48.884;9.126;2023-11-18T16:05:06;9.10;1.00
843;DHT22;407;48.884;9.126;2023-11-18T16:07:32;9.10;1.00
843;DHT22;407;48.884;9.126;2023-11-18T16:09:58;9.20;1.00
843;DHT22;407;48.884;9.126;2023-11-18T16:12:25;9.30;1.00
843;DHT22;407;48.884;9.126;2023-11-18T16:14:54;9.30;1.00
843;DHT22;407;48.884;9.126;2023-11-18T16:17:20;9.30;1.00
843;DHT22;407;48.884;9.126;2023-11-18T16:19:46;9.30;1.00
843;DHT22;407;48.884;9.126;2023-11-18T16:22:12;9.20;1.00
843;DHT22;407;48.884;9.126;2023-11-18T16:24:37;9.30;1.00
843;DHT22;407;48.884;9.126;2023-11-18T16:27:03;9.30;1.00
843;DHT22;407;48.884;9.126;2023-11-18T16:29:29;9.20;1.00
843;DHT22;407;48.884;9.126;2023-11-18T16:31:56;9.30;1.00
843;DHT22;407;48.884;9.126;2023-11-18T16:34:21;9.30;1.00
843;DHT22;407;48.884;9.126;2023-11-18T16:36:47;9.30;1.00
843;DHT22;407;48.884;9.126;2023-11-18T16:39:15;9.20;1.00
843;DHT22;407;48.884;9.126;2023-11-18T16:41:41;9.20;1.00
843;DHT22;407;48.884;9.126;2023-11-18T16:44:07;9.20;1.00
843;DHT22;407;48.884;9.126;2023-11-18T16:46:38;9.20;1.00
843;DHT22;407;48.884;9.126;2023-11-18T16:49:07;9.20;1.00
843;DHT22;407;48.884;9.126;2023-11-18T16:51:33;9.10;1.00
843;DHT22;407;48.884;9.126;2023-11-18T16:54:00;9.10;1.00
843;DHT22;407;48.884;9.126;2023-11-18T16:56:26;9.10;1.00
843;DHT22;407;48.884;9.126;2023-11-18T16:58:53;9.20;1.00
843;DHT22;407;48.884;9.126;2023-11-18T17:01:18;9.20;1.00
843;DHT22;407;48.884;9.126;2023-11-18T17:03:46;9.00;1.00
843;DHT22;407;48.884;9.126;2023-11-18T17:06:13;9.00;1.00
843;DHT22;407;48.884;9.126;2023-11-18T17:08:39;9.00;1.00
843;DHT22;407;48.884;9.126;2023-11-18T17:11:05;9.00;1.00
843;DHT22;407;48.884;9.126;2023-11-18T17:13:31;9.00;1.00
843;DHT22;407;48.884;9.126;2023-11-18T17:15:58;9.00;1.00
843;DHT22;407;48.884;9.126;2023-11-18T17:18:24;9.00;1.00
843;DHT22;407;48.884;9.126;2023-11-18T17:20:49;9.00;1.00
843;DHT22;407;48.884;9.126;2023-11-18T17:23:15;9.00;1.00
843;DHT22;407;48.884;9.126;2023-11-18T17:25:41;8.90;1.00
843;DHT22;407;48.884;9.126;2023-11-18T17:28:07;8.80;1.00
843;DHT22;407;48.884;9.126;2023-11-18T17:30:33;8.90;1.00
843;DHT22;407;48.884;9.126;2023-11-18T17:33:02;8.90;1.00
843;DHT22;407;48.884;9.126;2023-11-18T17:35:28;9.00;1.00
843;DHT22;407;48.884;9.126;2023-11-18T17:37:55;9.00;1.00